Flight Track Log - Related Links

Times and Time Zones

All times are in EDT time to prevent confusion due to time zone crossing. See the DAL3678 flight status page for this flight to view local times or setup timezone preferences in your user account.

Time Position Orientation Groundspeed Altitude Reporting Facility
EDT Latitude Longitude Course Direction KTS MPH feet Rate Location/Type
Tue 07:08:48 PM 42.9500 -87.9000 293° West 136 157 1,700  Level KMKE
Tue 07:11:07 PM 42.9956 -88.0486 293° West 230 265 5,100 1,791 Climbing Chicago Center
Tue 07:12:09 PM 42.9461 -88.1111 223° Southwest 242 278 7,700 2,371 Climbing Chicago Center
Tue 07:13:11 PM 42.8722 -88.1164 183° South 271 312 10,000 2,439 Climbing Chicago Center
Tue 07:14:12 PM 42.7789 -88.1111 178° South 286 329 12,700 2,293 Climbing Chicago Center
Tue 07:15:14 PM 42.6953 -88.1047 177° South 298 343 14,700 1,839 Climbing Chicago Center
Tue 07:16:16 PM 42.6067 -88.0986 177° South 316 364 16,500 1,597 Climbing Chicago Center
Tue 07:17:18 PM 42.5142 -88.0814 172° South 336 387 18,000 1,171 Climbing Chicago Center
Tue 07:18:19 PM 42.4344 -87.9875 139° Southeast 379 436 18,900 976 Climbing Chicago Center
Tue 07:19:21 PM 42.3500 -87.8911 140° Southeast 394 453 20,000 1,016 Climbing Chicago Center
Tue 07:20:23 PM 42.2561 -87.7819 139° Southeast 405 466 21,000 484 Climbing Chicago Center
Tue 07:21:25 PM 42.1656 -87.6767 139° Southeast 425 489 21,000  Level Chicago Center
Tue 07:22:27 PM 42.0711 -87.5675 139° Southeast 444 511 21,000  Level Chicago Center
Tue 07:23:28 PM 41.9872 -87.4386 131° Southeast 467 537 21,000  Level Chicago Center
Tue 07:24:30 PM 41.9764 -87.2600 95° East 481 554 21,000  Level Chicago Center
Tue 07:25:32 PM 41.9725 -87.0422 91° East 487 560 21,000  Level Chicago Center
Tue 07:26:34 PM 41.9694 -86.8628 91° East 483 556 21,000  Level Chicago Center
Tue 07:27:35 PM 41.9667 -86.6961 91° East 454 522 21,000  Level Chicago Center
Tue 07:28:37 PM 41.9622 -86.5169 92° East 443 510 21,000  Level Chicago Center
Tue 07:29:39 PM 41.9597 -86.3528 91° East 440 506 21,000  Level Chicago Center
Tue 07:30:41 PM 41.9572 -86.1883 91° East 440 506 21,000  Level Chicago Center
Tue 07:31:43 PM 41.9711 -86.0242 83° East 441 507 21,000  Level Chicago Center
Tue 07:32:44 PM 41.9839 -85.8572 84° East 447 514 21,000  Level Chicago Center
Tue 07:33:46 PM 41.9978 -85.6906 84° East 447 514 21,000  Level Chicago Center
Tue 07:34:48 PM 42.0106 -85.5067 85° East 448 516 21,000 -484 Level Chicago Center
Tue 07:35:50 PM 42.0217 -85.3419 85° East 444 511 20,000 -968 Descending Chicago Center
Tue 07:36:21 PM 42.0317 -85.2550 81° East 446 513 19,500 -659 Descending Cleveland Center
Tue 07:37:21 PM 42.0433 -85.0658 85° East 446 513 19,000 -250 Descending Cleveland Center
Tue 07:38:21 PM 42.0586 -84.8822 84° East 462 532 19,000  Level Cleveland Center
Tue 07:39:20 PM 42.0214 -84.7064 106° East 481 554 19,000 -850 Level Cleveland Center
Tue 07:40:21 PM 41.9731 -84.5411 111° Southeast 474 545 17,300 -1,785 Descending Cleveland Center
Tue 07:41:21 PM 41.9283 -84.3819 111° Southeast 474 545 15,400 -1,950 Descending Cleveland Center
Tue 07:41:41 PM 41.9111 -84.3336 116° Southeast 430 495 14,700 -1,895 Descending Cleveland Center
Tue 07:41:59 PM 41.8981 -84.2908 112° Southeast 409 471 14,200 -1,200 Descending Cleveland Center
Tue 07:42:21 PM 41.8847 -84.2511 114° Southeast 451 519 13,900 -1,377 Descending Cleveland Center
Tue 07:43:00 PM 41.8586 -84.1492 109° East 367 422 12,800 -1,300 Descending Cleveland Center
Tue 07:43:21 PM 41.8469 -84.1233 121° Southeast 409 471 12,600 -787 Descending Cleveland Center
Tue 07:44:01 PM 41.8417 -84.0256 94° East 342 394 12,000 -600 Descending Cleveland Center
Tue 07:44:21 PM 41.8422 -84.0033 88° East 347 399 12,000 -1,279 Level Cleveland Center
Tue 07:45:02 PM 41.8761 -83.9131 63° Northeast 334 384 10,700 -1,500 Descending Cleveland Center
Tue 07:45:21 PM 41.8789 -83.8881 82° East 325 374 10,500 -1,770 Descending Cleveland Center
Tue 07:46:03 PM 41.9067 -83.7947 68° East 330 380 8,900 -1,932 Descending Cleveland Center
Tue 07:46:20 PM 41.9114 -83.7725 74° East 320 368 8,600 -2,000 Descending Cleveland Center
Tue 07:46:57 PM 41.9344 -83.6956 68° East 317 365 7,100 -2,164 Descending Cleveland Center
Tue 07:47:21 PM 41.9461 -83.6514 70° East 320 368 6,400 -1,869 Descending Cleveland Center
Tue 07:47:58 PM 41.9686 -83.5828 66° East 308 354 5,200 -1,424 Descending Cleveland Center
Tue 07:48:20 PM 41.9861 -83.5528 52° Northeast 313 360 5,000 -590 Descending Cleveland Center
Tue 07:48:59 PM 42.0289 -83.5100 37° Northeast 277 319 4,600 -984 Descending Cleveland Center
Tue 07:49:21 PM 42.0522 -83.4972 22° Northeast 289 333 4,000 -1,475 Descending Cleveland Center
Tue 07:50:00 PM 42.0947 -83.4656 29° Northeast 240 276 3,100 -1,300 Descending Cleveland Center
Tue 07:50:21 PM 42.1097 -83.4494 39° Northeast 259 298 2,700 -1,071 Descending Cleveland Center
Tue 07:50:56 PM 42.1397 -83.4303 25° Northeast 173 199 2,100 -873 Descending FAA TRACON SMA TRACON (SMA)
Tue 07:51:16 PM 42.1514 -83.4219 28° Northeast 155 178 1,900 -732 Descending FAA TRACON SMA TRACON (SMA)
Tue 07:51:37 PM 42.1642 -83.4122 29° Northeast 141 162 1,600 -900 Descending FAA TRACON SMA TRACON (SMA)
Tue 07:51:56 PM 42.1742 -83.4039 32° Northeast 129 148 1,300 -750 Descending FAA TRACON SMA TRACON (SMA)
Tue 07:52:17 PM 42.1844 -83.3972 26° Northeast 127 146 1,100 -600 Descending FAA TRACON SMA TRACON (SMA)
Tue 07:52:36 PM 42.1956 -83.3889 29° Northeast 129 148 900 -615 Descending FAA TRACON SMA TRACON (SMA)
Tue 07:52:56 PM 42.2069 -83.3806 28° Northeast 127 146 700 -293 Descending FAA TRACON SMA TRACON (SMA)
Tue 07:53:17 PM 42.2131 -83.3761 28° Northeast 72 83 700  Level FAA TRACON SMA TRACON (SMA)
Tue 07:53:36 PM 42.2156 -83.3742 30° Northeast 64 74 700  Level FAA TRACON SMA TRACON (SMA)
Tue 07:53:57 PM 42.2156 -83.3742 151° Southeast 64 74 700  Level FAA TRACON SMA TRACON (SMA)
Tue 07:55:00 PM 42.2124 -83.3534 90° East  Level Estimated
Tue 08:02:00 PM 42.2124 -83.3534 90° East  Level Estimated

Login

Don't have an account? Register now (free) for customized features, flight alerts, and more!